createdAt,value
2022-11-18T00:01:39.391Z,4.60
2022-11-18T00:04:06.107Z,5.43
2022-11-18T00:06:32.815Z,4.57
2022-11-18T00:09:00.614Z,4.30
2022-11-18T00:11:46.317Z,5.03
2022-11-18T00:14:19.258Z,5.05
2022-11-18T00:17:06.232Z,6.15
2022-11-18T00:19:35.532Z,3.55
2022-11-18T00:22:03.356Z,4.68
2022-11-18T00:24:30.310Z,5.07
2022-11-18T00:26:57.471Z,5.07
2022-11-18T00:29:26.874Z,5.15
2022-11-18T00:31:54.314Z,4.57
2022-11-18T00:34:21.132Z,4.30
2022-11-18T00:36:48.439Z,5.00
2022-11-18T00:39:17.508Z,4.18
2022-11-18T00:42:03.871Z,4.53
2022-11-18T00:44:30.686Z,4.15
2022-11-18T00:46:57.767Z,4.25
2022-11-18T00:49:24.858Z,4.00
2022-11-18T00:51:51.777Z,4.68
2022-11-18T00:54:18.686Z,4.30
2022-11-18T00:56:45.540Z,4.00
2022-11-18T00:59:12.237Z,3.97
2022-11-18T01:01:39.083Z,4.35
2022-11-18T01:04:05.870Z,3.95
2022-11-18T01:06:32.731Z,4.72
2022-11-18T01:08:59.523Z,3.85
2022-11-18T01:11:45.012Z,4.03
2022-11-18T01:14:11.899Z,4.32
2022-11-18T01:16:38.747Z,4.45
2022-11-18T01:19:05.582Z,3.75
2022-11-18T01:21:32.419Z,3.75
2022-11-18T01:23:59.203Z,3.83
2022-11-18T01:26:25.979Z,3.60
2022-11-18T01:28:56.837Z,3.95
2022-11-18T01:31:23.668Z,3.30
2022-11-18T01:33:50.422Z,3.83
2022-11-18T01:36:21.201Z,3.85
2022-11-18T01:38:50.379Z,3.75
2022-11-18T01:41:18.170Z,3.53
2022-11-18T01:43:52.377Z,3.55
2022-11-18T01:46:19.746Z,4.68
2022-11-18T01:48:49.808Z,3.88
2022-11-18T01:51:17.911Z,4.88
2022-11-18T01:53:50.782Z,3.78
2022-11-18T01:56:28.872Z,3.70
2022-11-18T01:59:29.389Z,3.47
2022-11-18T02:01:59.704Z,3.90
2022-11-18T02:04:27.860Z,3.63
2022-11-18T02:06:55.007Z,3.05
2022-11-18T02:09:22.278Z,3.50
2022-11-18T02:11:52.070Z,3.33
2022-11-18T02:14:27.959Z,3.47
2022-11-18T02:16:54.685Z,4.05
2022-11-18T02:19:36.724Z,3.38
2022-11-18T02:22:21.765Z,3.70
2022-11-18T02:25:03.450Z,3.15
2022-11-18T02:27:57.873Z,3.63
2022-11-18T02:32:54.447Z,3.25
2022-11-18T02:35:32.179Z,3.30
2022-11-18T02:38:02.352Z,4.78
2022-11-18T02:40:32.214Z,3.90
2022-11-18T02:43:05.002Z,4.22
2022-11-18T02:45:32.641Z,3.47
2022-11-18T02:48:05.887Z,4.45
2022-11-18T02:50:33.243Z,3.47
2022-11-18T02:53:01.865Z,3.75
2022-11-18T02:57:57.318Z,3.67
2022-11-18T03:00:24.119Z,3.60
2022-11-18T03:02:50.908Z,3.83
2022-11-18T03:05:35.988Z,3.90
2022-11-18T03:08:09.100Z,4.07
2022-11-18T03:10:43.863Z,4.03
2022-11-18T03:13:26.375Z,4.22
2022-11-18T03:16:03.389Z,3.88
2022-11-18T03:18:45.544Z,4.85
2022-11-18T03:21:16.934Z,4.10
2022-11-18T03:23:52.197Z,4.85
2022-11-18T03:26:30.150Z,4.80
2022-11-18T03:29:21.109Z,4.35
2022-11-18T03:31:51.954Z,4.30
2022-11-18T03:34:27.405Z,4.70
2022-11-18T03:37:00.481Z,4.32
2022-11-18T03:39:29.503Z,5.15
2022-11-18T03:42:19.670Z,5.88
2022-11-18T03:44:52.654Z,7.72
2022-11-18T03:47:30.364Z,6.15
2022-11-18T03:50:01.701Z,7.15
2022-11-18T03:52:31.933Z,6.03
2022-11-18T03:55:00.882Z,6.25
2022-11-18T03:57:38.052Z,5.22
2022-11-18T04:00:10.146Z,7.10
2022-11-18T04:02:37.420Z,6.30
2022-11-18T04:05:06.221Z,5.93
2022-11-18T04:07:45.154Z,6.22
2022-11-18T04:10:16.985Z,5.10
2022-11-18T04:12:47.828Z,6.00
2022-11-18T04:15:14.638Z,6.78
2022-11-18T04:17:43.031Z,6.53
2022-11-18T04:20:18.668Z,7.82
2022-11-18T04:22:45.606Z,7.03
2022-11-18T04:25:12.712Z,6.40
2022-11-18T04:27:39.500Z,5.75
2022-11-18T04:30:07.364Z,6.38
2022-11-18T04:32:34.132Z,6.35
2022-11-18T04:35:01.073Z,7.65
2022-11-18T04:37:27.876Z,7.82
2022-11-18T04:39:54.650Z,7.05
2022-11-18T04:42:21.464Z,7.28
2022-11-18T04:44:48.178Z,7.03
2022-11-18T04:47:14.950Z,7.93
2022-11-18T04:49:41.821Z,6.53
2022-11-18T04:52:08.951Z,7.30
2022-11-18T04:54:35.831Z,7.38
2022-11-18T04:57:02.583Z,6.95
2022-11-18T04:59:30.171Z,6.75
2022-11-18T05:01:57.659Z,6.57
2022-11-18T05:04:26.480Z,7.90
2022-11-18T05:06:53.585Z,6.90
2022-11-18T05:09:20.882Z,7.40
2022-11-18T05:12:06.645Z,7.82
2022-11-18T05:14:33.623Z,8.95
2022-11-18T05:17:23.843Z,8.45
2022-11-18T05:19:50.617Z,8.15
2022-11-18T05:22:17.698Z,9.05
2022-11-18T05:24:44.512Z,9.52
2022-11-18T05:27:11.648Z,9.52
2022-11-18T05:29:38.422Z,9.65
2022-11-18T05:32:05.587Z,11.15
2022-11-18T05:34:32.571Z,11.07
2022-11-18T05:37:00.018Z,11.40
2022-11-18T05:39:26.775Z,9.05
2022-11-18T05:42:12.145Z,10.10
2022-11-18T05:44:39.208Z,10.30
2022-11-18T05:47:06.232Z,8.07
2022-11-18T05:49:32.992Z,9.23
2022-11-18T05:51:59.724Z,7.85
2022-11-18T05:54:27.068Z,9.05
2022-11-18T05:56:53.847Z,9.73
2022-11-18T05:59:20.890Z,8.60
2022-11-18T06:01:53.542Z,9.75
2022-11-18T06:04:22.980Z,9.23
2022-11-18T06:06:50.999Z,10.25
2022-11-18T06:09:20.888Z,9.98
2022-11-18T06:11:52.832Z,11.57
2022-11-18T06:14:50.624Z,11.55
2022-11-18T06:17:23.211Z,12.57
2022-11-18T06:19:50.281Z,13.15
2022-11-18T06:22:17.068Z,12.77
2022-11-18T06:24:44.372Z,12.25
2022-11-18T06:27:11.632Z,13.80
2022-11-18T06:29:38.378Z,13.07
2022-11-18T06:32:05.307Z,12.13
2022-11-18T06:34:35.544Z,13.13
2022-11-18T06:37:15.343Z,12.02
2022-11-18T06:39:42.316Z,12.82
2022-11-18T06:42:09.074Z,13.40
2022-11-18T06:44:35.837Z,13.90
2022-11-18T06:47:04.496Z,14.18
2022-11-18T06:49:31.307Z,12.85
2022-11-18T06:51:58.099Z,12.05
2022-11-18T06:54:24.878Z,11.52
2022-11-18T06:56:51.658Z,14.18
2022-11-18T06:59:23.857Z,14.15
2022-11-18T07:01:53.122Z,13.10
2022-11-18T07:04:20.216Z,14.50
2022-11-18T07:06:46.996Z,14.80
2022-11-18T07:09:13.867Z,15.60
2022-11-18T07:11:41.418Z,15.27
2022-11-18T07:14:09.554Z,15.90
2022-11-18T07:16:36.952Z,16.75
2022-11-18T07:19:12.045Z,15.35
2022-11-18T07:21:39.454Z,14.45
2022-11-18T07:24:07.826Z,15.40
2022-11-18T07:26:35.647Z,15.57
2022-11-18T07:29:02.696Z,17.23
2022-11-18T07:31:29.952Z,15.10
2022-11-18T07:33:56.887Z,12.25
2022-11-18T07:36:30.847Z,12.85
2022-11-18T07:39:01.854Z,9.93
2022-11-18T07:41:30.246Z,10.82
2022-11-18T07:46:29.576Z,11.93
2022-11-18T07:48:58.026Z,10.68
2022-11-18T07:53:52.492Z,12.27
2022-11-18T07:56:20.030Z,12.07
2022-11-18T07:58:47.217Z,13.57
2022-11-18T08:01:16.327Z,14.23
2022-11-18T08:03:44.031Z,13.80
2022-11-18T08:06:12.655Z,12.90
2022-11-18T08:08:39.781Z,11.73
2022-11-18T08:11:09.459Z,13.43
2022-11-18T08:13:36.714Z,14.95
2022-11-18T08:16:04.861Z,13.98
2022-11-18T08:18:32.738Z,13.35
2022-11-18T08:21:03.683Z,12.38
2022-11-18T08:23:33.972Z,12.75
2022-11-18T08:26:08.081Z,12.73
2022-11-18T08:28:35.049Z,11.40
2022-11-18T08:31:09.760Z,9.93
2022-11-18T08:33:36.527Z,10.05
2022-11-18T08:36:18.849Z,10.65
2022-11-18T08:38:45.661Z,11.70
2022-11-18T08:41:28.699Z,9.25
2022-11-18T08:43:55.542Z,9.38
2022-11-18T08:46:23.116Z,9.05
2022-11-18T08:48:49.911Z,12.43
2022-11-18T08:51:17.168Z,11.65
2022-11-18T08:53:44.822Z,12.05
2022-11-18T08:56:16.312Z,11.32
2022-11-18T08:58:43.588Z,10.50
2022-11-18T09:01:10.598Z,6.85
2022-11-18T09:03:37.614Z,5.93
2022-11-18T09:06:15.645Z,7.30
2022-11-18T09:08:43.101Z,5.60
2022-11-18T09:11:11.540Z,6.13
2022-11-18T09:14:38.980Z,5.93
2022-11-18T09:19:45.646Z,6.40
2022-11-18T09:22:02.356Z,6.65
2022-11-18T09:24:29.143Z,6.45
2022-11-18T09:26:55.873Z,6.07
2022-11-18T09:29:26.171Z,6.05
2022-11-18T09:31:54.159Z,4.63
2022-11-18T09:34:21.564Z,4.68
2022-11-18T09:36:48.455Z,4.68
2022-11-18T09:39:15.447Z,5.75
2022-11-18T09:41:42.466Z,4.00
2022-11-18T09:44:33.491Z,4.53
2022-11-18T09:47:09.493Z,3.70
2022-11-18T09:49:39.086Z,3.72
2022-11-18T09:52:12.993Z,3.25
2022-11-18T09:54:40.007Z,4.07
2022-11-18T09:57:34.087Z,3.85
2022-11-18T10:00:01.492Z,5.10
2022-11-18T10:02:47.181Z,5.13
2022-11-18T10:05:26.424Z,6.78
2022-11-18T10:08:29.065Z,6.07
2022-11-18T10:11:08.067Z,6.28
2022-11-18T10:14:01.606Z,6.03
2022-11-18T10:16:42.253Z,6.15
2022-11-18T10:19:20.416Z,7.35
2022-11-18T10:22:18.085Z,7.28
2022-11-18T10:24:53.602Z,5.82
2022-11-18T10:27:20.838Z,7.28
2022-11-18T10:29:57.980Z,6.03
2022-11-18T10:32:24.972Z,7.40
2022-11-18T10:34:56.868Z,8.05
2022-11-18T10:37:52.895Z,7.05
2022-11-18T10:40:28.766Z,5.85
2022-11-18T10:42:55.859Z,5.97
2022-11-18T10:45:22.576Z,6.28
2022-11-18T10:48:11.622Z,6.03
2022-11-18T10:50:43.407Z,5.97
2022-11-18T10:53:37.143Z,5.68
2022-11-18T10:56:09.113Z,4.90
2022-11-18T10:58:41.000Z,5.30
2022-11-18T11:01:25.491Z,5.70
2022-11-18T11:04:20.314Z,4.80
2022-11-18T11:06:47.153Z,5.60
2022-11-18T11:09:13.837Z,5.38
2022-11-18T11:11:43.672Z,5.60
2022-11-18T11:14:42.822Z,6.32
2022-11-18T11:17:13.268Z,7.82
2022-11-18T11:20:18.639Z,6.70
2022-11-18T11:22:45.833Z,8.45
2022-11-18T11:25:15.979Z,10.00
2022-11-18T11:30:47.409Z,9.55
2022-11-18T11:33:20.980Z,9.90
2022-11-18T11:36:21.108Z,9.35
2022-11-18T11:39:04.892Z,10.43
2022-11-18T11:41:45.954Z,11.15
2022-11-18T11:44:27.574Z,10.82
2022-11-18T11:47:19.093Z,11.82
2022-11-18T11:50:07.166Z,11.15
2022-11-18T11:52:57.146Z,11.45
2022-11-18T11:55:42.292Z,9.68
2022-11-18T11:58:23.729Z,9.32
2022-11-18T12:01:00.699Z,10.15
2022-11-18T12:03:46.094Z,10.63
2022-11-18T12:06:17.229Z,10.38
2022-11-18T12:08:53.299Z,11.52
2022-11-18T12:11:43.203Z,9.55
2022-11-18T12:14:15.699Z,8.48
2022-11-18T12:17:04.064Z,8.40
2022-11-18T12:19:30.979Z,9.73
2022-11-18T12:22:03.977Z,8.73
2022-11-18T12:24:42.658Z,8.02
2022-11-18T12:27:09.386Z,7.25
2022-11-18T12:29:50.475Z,8.13
2022-11-18T12:32:30.464Z,5.90
2022-11-18T12:35:04.214Z,6.75
2022-11-18T12:37:31.072Z,6.55
2022-11-18T12:39:59.423Z,7.03
2022-11-18T12:42:56.440Z,5.20
2022-11-18T12:45:56.225Z,5.25
2022-11-18T12:48:41.896Z,5.03
2022-11-18T12:51:14.676Z,1.20
2022-11-18T12:53:54.429Z,1.80
2022-11-18T12:56:23.053Z,4.13
2022-11-18T12:59:00.793Z,4.75
2022-11-18T13:01:30.740Z,4.38
2022-11-18T13:04:06.843Z,3.53
2022-11-18T13:06:35.176Z,4.82
2022-11-18T13:09:04.274Z,6.85
2022-11-18T13:11:44.730Z,5.32
2022-11-18T13:14:43.352Z,4.45
2022-11-18T13:17:52.365Z,1.83
2022-11-18T13:20:36.426Z,1.83
2022-11-18T13:23:32.963Z,2.30
2022-11-18T13:26:11.542Z,1.85
2022-11-18T13:28:57.142Z,1.30
2022-11-18T13:31:38.577Z,1.23
2022-11-18T13:34:27.170Z,1.27
2022-11-18T13:36:55.847Z,1.08
2022-11-18T13:39:31.524Z,1.73
2022-11-18T13:42:06.695Z,1.30
2022-11-18T13:44:38.241Z,1.83
2022-11-18T13:47:17.491Z,0.95
2022-11-18T13:50:17.692Z,0.95
2022-11-18T13:55:40.216Z,1.13
2022-11-18T13:58:20.636Z,1.13
2022-11-18T14:01:03.635Z,0.90
2022-11-18T14:03:34.668Z,1.02
2022-11-18T14:06:02.536Z,1.67
2022-11-18T14:08:31.498Z,1.35
2022-11-18T14:10:58.885Z,1.40
2022-11-18T14:13:32.053Z,1.20
2022-11-18T14:16:04.469Z,1.10
2022-11-18T14:18:34.847Z,1.27
2022-11-18T14:21:03.391Z,1.17
2022-11-18T14:23:32.392Z,1.00
2022-11-18T14:26:01.444Z,1.20
2022-11-18T14:28:30.503Z,0.88
2022-11-18T14:31:12.475Z,1.50
2022-11-18T14:33:39.502Z,1.10
2022-11-18T14:36:12.441Z,1.13
2022-11-18T14:38:57.952Z,1.10
2022-11-18T14:41:49.375Z,0.82
2022-11-18T14:44:17.662Z,1.40
2022-11-18T14:46:52.288Z,1.65
2022-11-18T14:49:23.651Z,1.60
2022-11-18T14:51:51.968Z,1.73
2022-11-18T14:54:25.871Z,1.27
2022-11-18T14:57:00.914Z,0.75
2022-11-18T14:59:27.916Z,1.65
2022-11-18T15:01:56.542Z,1.10
2022-11-18T15:04:23.611Z,1.35
2022-11-18T15:06:50.472Z,0.80
2022-11-18T15:09:17.222Z,0.90
2022-11-18T15:11:44.806Z,1.02
2022-11-18T15:14:11.558Z,0.77
2022-11-18T15:16:38.399Z,1.05
2022-11-18T15:19:06.540Z,1.27
2022-11-18T15:21:33.647Z,1.20
2022-11-18T15:24:00.478Z,0.80
2022-11-18T15:26:35.836Z,0.90
2022-11-18T15:29:03.392Z,0.88
2022-11-18T15:31:30.254Z,0.70
2022-11-18T15:33:58.880Z,1.08
2022-11-18T15:36:28.894Z,1.00
2022-11-18T15:38:55.698Z,1.83
2022-11-18T15:41:25.639Z,0.95
2022-11-18T15:43:53.840Z,1.00
2022-11-18T15:48:51.238Z,1.30
2022-11-18T15:51:18.061Z,0.63
2022-11-18T15:53:44.927Z,1.60
2022-11-18T15:56:21.196Z,1.20
2022-11-18T15:58:57.179Z,1.10
2022-11-18T16:01:29.634Z,1.50
2022-11-18T16:03:57.181Z,1.52
2022-11-18T16:06:24.763Z,1.60
2022-11-18T16:08:56.005Z,1.42
2022-11-18T16:11:44.857Z,1.52
2022-11-18T16:14:13.466Z,1.52
2022-11-18T16:16:41.434Z,1.52
2022-11-18T16:19:10.232Z,1.75
2022-11-18T16:21:38.934Z,1.30
2022-11-18T16:24:07.738Z,2.33
2022-11-18T16:26:35.356Z,1.13
2022-11-18T16:29:02.106Z,1.40
2022-11-18T16:31:41.076Z,0.90
2022-11-18T16:34:18.527Z,0.75
2022-11-18T16:36:50.690Z,1.27
2022-11-18T16:39:19.990Z,1.02
2022-11-18T16:41:46.987Z,0.88
2022-11-18T16:44:15.109Z,0.90
2022-11-18T16:46:46.633Z,0.73
2022-11-18T16:49:15.391Z,1.60
2022-11-18T16:51:43.746Z,1.20
2022-11-18T16:54:18.845Z,1.67
2022-11-18T16:56:47.230Z,1.08
2022-11-18T16:59:19.361Z,1.63
2022-11-18T17:01:46.316Z,1.13
2022-11-18T17:04:13.716Z,1.00
2022-11-18T17:06:41.143Z,0.68
2022-11-18T17:09:10.272Z,1.10
2022-11-18T17:11:37.000Z,1.33
2022-11-18T17:14:03.771Z,1.05
2022-11-18T17:16:30.704Z,1.00
2022-11-18T17:18:59.840Z,1.20
2022-11-18T17:21:28.232Z,1.45
2022-11-18T17:23:55.121Z,1.30
2022-11-18T17:26:24.174Z,1.10
2022-11-18T17:28:51.012Z,1.30
2022-11-18T17:31:20.484Z,1.52
2022-11-18T17:33:48.254Z,0.95
2022-11-18T17:36:17.216Z,1.52
2022-11-18T17:38:46.918Z,1.45
2022-11-18T17:41:34.051Z,1.13
2022-11-18T17:44:02.340Z,0.70
2022-11-18T17:46:33.404Z,1.40
2022-11-18T17:49:05.130Z,1.52
2022-11-18T17:51:31.914Z,1.10
2022-11-18T17:53:58.927Z,1.77
2022-11-18T17:56:25.737Z,1.38
2022-11-18T17:58:55.779Z,1.35
2022-11-18T18:01:23.067Z,1.40
2022-11-18T18:03:50.065Z,0.95
2022-11-18T18:06:17.475Z,1.17
2022-11-18T18:08:44.225Z,1.30
2022-11-18T18:11:13.806Z,1.05
2022-11-18T18:13:59.635Z,0.98
2022-11-18T18:16:27.482Z,1.00
2022-11-18T18:18:54.399Z,1.00
2022-11-18T18:21:21.238Z,0.85
2022-11-18T18:23:48.186Z,0.95
2022-11-18T18:26:15.518Z,0.90
2022-11-18T18:28:42.331Z,0.75
2022-11-18T18:31:10.808Z,0.75
2022-11-18T18:33:40.096Z,1.10
2022-11-18T18:36:09.324Z,0.80
2022-11-18T18:38:37.418Z,1.77
2022-11-18T18:41:06.920Z,0.63
2022-11-18T18:43:33.758Z,1.02
2022-11-18T18:46:28.904Z,0.88
2022-11-18T18:48:57.014Z,0.77
2022-11-18T18:51:24.620Z,0.95
2022-11-18T18:53:51.611Z,1.00
2022-11-18T18:56:18.394Z,0.50
2022-11-18T18:58:45.126Z,1.65
2022-11-18T19:01:14.037Z,1.00
2022-11-18T19:03:41.910Z,1.10
2022-11-18T19:09:11.834Z,1.48
2022-11-18T19:11:57.234Z,1.30
2022-11-18T19:14:24.963Z,1.00
2022-11-18T19:16:52.382Z,0.75
2022-11-18T19:19:43.127Z,1.15
2022-11-18T19:22:11.867Z,0.93
2022-11-18T19:24:54.609Z,1.13
2022-11-18T19:27:21.939Z,1.23
2022-11-18T19:29:49.025Z,1.52
2022-11-18T19:32:15.862Z,1.30
2022-11-18T19:34:42.584Z,0.60
2022-11-18T19:37:09.424Z,1.10
2022-11-18T19:39:38.020Z,1.30
2022-11-18T19:42:04.990Z,0.80
2022-11-18T19:44:31.657Z,1.00
2022-11-18T19:46:58.436Z,1.20
2022-11-18T19:49:25.332Z,1.00
2022-11-18T19:51:52.077Z,1.33
2022-11-18T19:54:18.824Z,1.40
2022-11-18T19:56:45.615Z,1.30
2022-11-18T19:59:12.816Z,1.63
2022-11-18T20:01:39.898Z,1.20
2022-11-18T20:04:06.850Z,1.40
2022-11-18T20:06:35.308Z,1.58
2022-11-18T20:09:02.505Z,1.33
2022-11-18T20:11:29.371Z,1.17
2022-11-18T20:13:56.082Z,1.63
2022-11-18T20:16:24.605Z,0.52
2022-11-18T20:18:59.665Z,0.80
2022-11-18T20:21:27.413Z,0.98
2022-11-18T20:24:04.755Z,0.95
2022-11-18T20:26:37.137Z,1.23
2022-11-18T20:29:04.434Z,1.30
2022-11-18T20:31:33.305Z,1.30
2022-11-18T20:34:00.127Z,0.80
2022-11-18T20:36:34.510Z,0.95
2022-11-18T20:39:06.377Z,1.13
2022-11-18T20:41:33.593Z,0.73
2022-11-18T20:44:01.078Z,0.70
2022-11-18T20:46:28.185Z,1.08
2022-11-18T20:48:55.502Z,0.80
2022-11-18T20:51:24.286Z,0.90
2022-11-18T20:53:52.057Z,0.70
2022-11-18T20:56:21.176Z,1.00
2022-11-18T20:58:48.100Z,0.70
2022-11-18T21:01:18.117Z,0.60
2022-11-18T21:03:52.921Z,1.10
2022-11-18T21:06:20.455Z,0.70
2022-11-18T21:08:47.163Z,1.08
2022-11-18T21:11:14.828Z,0.60
2022-11-18T21:14:00.049Z,1.00
2022-11-18T21:16:27.838Z,1.23
2022-11-18T21:18:54.780Z,0.60
2022-11-18T21:21:40.249Z,0.95
2022-11-18T21:24:07.358Z,0.80
2022-11-18T21:26:35.595Z,0.50
2022-11-18T21:31:32.568Z,0.85
2022-11-18T21:33:59.797Z,1.00
2022-11-18T21:36:28.340Z,1.00
2022-11-18T21:38:57.061Z,0.47
2022-11-18T21:41:24.051Z,1.20
2022-11-18T21:44:05.118Z,1.30
2022-11-18T21:46:34.647Z,1.00
2022-11-18T21:49:02.089Z,1.08
2022-11-18T21:51:31.376Z,1.52
2022-11-18T21:53:59.082Z,0.80
2022-11-18T21:56:29.421Z,0.80
2022-11-18T21:58:57.539Z,0.55
2022-11-18T22:01:29.512Z,0.47
2022-11-18T22:04:05.904Z,0.60
2022-11-18T22:06:34.440Z,0.70
2022-11-18T22:09:03.005Z,1.00
2022-11-18T22:11:30.090Z,0.73
2022-11-18T22:13:57.231Z,0.98
2022-11-18T22:16:25.108Z,0.75
2022-11-18T22:18:59.046Z,0.95
2022-11-18T22:21:29.308Z,0.82
2022-11-18T22:24:00.523Z,1.25
2022-11-18T22:26:27.808Z,1.50
2022-11-18T22:28:56.771Z,1.20
2022-11-18T22:31:24.955Z,1.13
2022-11-18T22:36:21.062Z,1.73
2022-11-18T22:38:47.967Z,1.75
2022-11-18T22:41:38.386Z,1.50
2022-11-18T22:44:08.033Z,1.08
2022-11-18T22:46:38.960Z,1.38
2022-11-18T22:49:07.479Z,2.28
2022-11-18T22:51:34.909Z,1.77
2022-11-18T22:54:36.497Z,1.63
2022-11-18T22:56:48.461Z,2.72
2022-11-18T22:59:15.246Z,2.60
2022-11-18T23:01:41.973Z,2.85
2022-11-18T23:04:08.856Z,2.80
2022-11-18T23:06:35.549Z,2.90
2022-11-18T23:09:02.642Z,3.22
2022-11-18T23:11:48.786Z,3.15
2022-11-18T23:14:15.733Z,3.78
2022-11-18T23:16:43.067Z,4.45
2022-11-18T23:19:12.066Z,4.43
2022-11-18T23:21:39.228Z,4.70
2022-11-18T23:24:06.730Z,3.85
2022-11-18T23:26:33.534Z,4.10
2022-11-18T23:29:00.313Z,3.60
2022-11-18T23:31:27.839Z,3.90
2022-11-18T23:33:55.921Z,2.70
2022-11-18T23:36:23.261Z,4.35
2022-11-18T23:38:50.071Z,4.55
2022-11-18T23:41:18.080Z,3.30
2022-11-18T23:43:48.536Z,1.92
2022-11-18T23:46:17.014Z,1.27
2022-11-18T23:48:44.451Z,1.25
2022-11-18T23:51:13.623Z,0.60
2022-11-18T23:53:40.811Z,0.70
2022-11-18T23:56:15.926Z,0.70
2022-11-18T23:58:44.867Z,0.60
